createdAt,value
2018-12-31T00:02:06.934Z,91.84
2018-12-31T00:04:38.562Z,91.78
2018-12-31T00:07:11.372Z,91.65
2018-12-31T00:09:42.464Z,92.00
2018-12-31T00:12:13.557Z,91.44
2018-12-31T00:14:46.269Z,91.37
2018-12-31T00:17:17.531Z,90.91
2018-12-31T00:19:48.757Z,90.74
2018-12-31T00:22:20.197Z,91.30
2018-12-31T00:24:51.615Z,90.03
2018-12-31T00:27:22.760Z,90.35
2018-12-31T00:29:53.898Z,90.25
2018-12-31T00:32:25.033Z,90.10
2018-12-31T00:34:56.120Z,89.73
2018-12-31T00:37:27.429Z,89.48
2018-12-31T00:39:59.024Z,89.74
2018-12-31T00:42:30.300Z,89.62
2018-12-31T00:45:01.400Z,89.13
2018-12-31T00:47:33.022Z,89.87
2018-12-31T00:50:04.590Z,89.75
2018-12-31T00:52:35.990Z,89.69
2018-12-31T00:55:06.980Z,89.77
2018-12-31T00:57:38.144Z,89.93
2018-12-31T01:00:09.594Z,89.62
2018-12-31T01:02:40.664Z,90.04
2018-12-31T01:05:12.146Z,89.90
2018-12-31T01:07:43.149Z,90.02
2018-12-31T01:10:14.563Z,89.48
2018-12-31T01:12:45.679Z,90.07
2018-12-31T01:15:18.414Z,90.20
2018-12-31T01:17:50.499Z,89.86
2018-12-31T01:20:21.755Z,89.60
2018-12-31T01:22:53.742Z,89.96
2018-12-31T01:25:25.310Z,89.30
2018-12-31T01:27:56.734Z,89.76
2018-12-31T01:30:27.901Z,89.83
2018-12-31T01:33:00.725Z,89.86
2018-12-31T01:35:32.179Z,89.80
2018-12-31T01:38:03.316Z,89.63
2018-12-31T01:40:34.511Z,89.63
2018-12-31T01:43:06.601Z,89.79
2018-12-31T01:45:37.689Z,89.05
2018-12-31T01:48:08.857Z,89.15
2018-12-31T01:50:39.965Z,89.07
2018-12-31T01:53:11.329Z,89.42
2018-12-31T01:55:44.106Z,88.93
2018-12-31T01:58:15.389Z,88.73
2018-12-31T02:00:47.199Z,89.05
2018-12-31T02:03:19.023Z,89.40
2018-12-31T02:05:50.353Z,89.62
2018-12-31T02:08:22.799Z,89.71
2018-12-31T02:10:54.060Z,89.93
2018-12-31T02:13:25.474Z,90.25
2018-12-31T02:15:57.021Z,90.48
2018-12-31T02:18:28.691Z,90.80
2018-12-31T02:21:00.061Z,90.73
2018-12-31T02:23:31.217Z,90.98
2018-12-31T02:26:02.863Z,91.23
2018-12-31T02:28:33.872Z,91.18
2018-12-31T02:31:06.008Z,91.73
2018-12-31T02:33:37.279Z,91.81
2018-12-31T02:36:08.749Z,91.95
2018-12-31T02:38:40.069Z,92.28
2018-12-31T02:41:11.421Z,92.17
2018-12-31T02:43:42.558Z,92.14
2018-12-31T02:46:14.032Z,92.24
2018-12-31T02:48:45.108Z,92.26
2018-12-31T02:51:16.270Z,92.19
2018-12-31T02:53:49.946Z,92.28
2018-12-31T02:56:22.086Z,91.77
2018-12-31T02:58:55.134Z,92.06
2018-12-31T03:01:26.385Z,91.76
2018-12-31T03:03:57.481Z,91.67
2018-12-31T03:06:30.585Z,91.51
2018-12-31T03:09:01.925Z,91.70
2018-12-31T03:11:33.056Z,91.83
2018-12-31T03:14:04.186Z,91.86
2018-12-31T03:16:35.267Z,91.61
2018-12-31T03:19:06.294Z,91.50
2018-12-31T03:21:37.374Z,91.43
2018-12-31T03:24:08.404Z,91.45
2018-12-31T03:26:39.825Z,91.50
2018-12-31T03:29:11.282Z,91.54
2018-12-31T03:31:42.660Z,91.16
2018-12-31T03:34:13.910Z,91.26
2018-12-31T03:36:44.913Z,91.08
2018-12-31T03:39:16.254Z,90.88
2018-12-31T03:41:47.272Z,90.76
2018-12-31T03:44:20.266Z,91.03
2018-12-31T03:46:52.932Z,91.04
2018-12-31T03:49:24.266Z,91.33
2018-12-31T03:51:55.221Z,91.20
2018-12-31T03:54:26.486Z,91.32
2018-12-31T03:56:59.178Z,91.27
2018-12-31T03:59:30.478Z,91.09
2018-12-31T04:02:01.886Z,91.55
2018-12-31T04:04:33.000Z,91.18
2018-12-31T04:07:04.150Z,91.41
2018-12-31T04:09:35.563Z,91.28
2018-12-31T04:12:06.689Z,91.05
2018-12-31T04:14:38.053Z,91.31
2018-12-31T04:17:09.198Z,90.96
2018-12-31T04:19:40.332Z,90.83
2018-12-31T04:22:11.848Z,91.18
2018-12-31T04:24:43.110Z,91.42
2018-12-31T04:27:14.205Z,91.70
2018-12-31T04:29:45.495Z,91.89
2018-12-31T04:32:16.728Z,91.89
2018-12-31T04:34:48.032Z,91.35
2018-12-31T04:37:19.118Z,91.54
2018-12-31T04:39:50.235Z,91.80
2018-12-31T04:42:21.504Z,91.91
2018-12-31T04:44:52.606Z,91.83
2018-12-31T04:47:23.825Z,91.95
2018-12-31T04:49:54.871Z,91.99
2018-12-31T04:52:26.366Z,92.25
2018-12-31T04:54:57.838Z,92.38
2018-12-31T04:57:29.062Z,92.53
2018-12-31T05:00:00.311Z,92.34
2018-12-31T05:02:33.394Z,92.88
2018-12-31T05:05:05.966Z,93.12
2018-12-31T05:07:36.958Z,93.33
2018-12-31T05:10:08.118Z,93.49
2018-12-31T05:12:39.611Z,93.93
2018-12-31T05:15:10.849Z,94.16
2018-12-31T05:17:42.444Z,94.30
2018-12-31T05:20:14.050Z,94.29
2018-12-31T05:22:45.133Z,94.33
2018-12-31T05:25:18.035Z,94.48
2018-12-31T05:27:49.404Z,94.49
2018-12-31T05:30:21.082Z,94.65
2018-12-31T05:32:53.738Z,94.41
2018-12-31T05:35:25.050Z,94.47
2018-12-31T05:37:55.991Z,94.49
2018-12-31T05:40:27.255Z,94.43
2018-12-31T05:42:58.418Z,94.54
2018-12-31T05:45:29.786Z,94.29
2018-12-31T05:48:00.888Z,94.57
2018-12-31T05:50:33.541Z,94.12
2018-12-31T05:53:04.603Z,94.40
2018-12-31T05:55:35.818Z,94.38
2018-12-31T05:58:06.871Z,94.42
2018-12-31T06:00:38.326Z,94.09
2018-12-31T06:03:09.308Z,94.17
2018-12-31T06:05:40.833Z,93.81
2018-12-31T06:08:12.126Z,93.84
2018-12-31T06:10:43.235Z,92.45
2018-12-31T06:13:14.855Z,92.95
2018-12-31T06:15:46.094Z,93.06
2018-12-31T06:18:17.507Z,93.08
2018-12-31T06:20:48.792Z,92.82
2018-12-31T06:23:19.783Z,91.87
2018-12-31T06:25:52.669Z,90.73
2018-12-31T06:28:24.070Z,89.94
2018-12-31T06:30:55.622Z,89.21
2018-12-31T06:33:26.778Z,88.58
2018-12-31T06:35:57.909Z,89.00
2018-12-31T06:38:28.981Z,88.50
2018-12-31T06:41:00.293Z,87.94
2018-12-31T06:43:31.335Z,87.97
2018-12-31T06:46:02.801Z,86.15
2018-12-31T06:48:33.964Z,87.03
2018-12-31T06:51:07.320Z,86.87
2018-12-31T06:53:39.239Z,87.29
2018-12-31T06:56:10.445Z,87.94
2018-12-31T06:58:41.583Z,87.99
2018-12-31T07:01:13.377Z,88.43
2018-12-31T07:03:44.707Z,88.39
2018-12-31T07:06:16.212Z,88.65
2018-12-31T07:08:47.574Z,88.94
2018-12-31T07:11:18.971Z,89.25
2018-12-31T07:13:50.188Z,89.57
2018-12-31T07:16:22.405Z,89.22
2018-12-31T07:18:53.636Z,89.07
2018-12-31T07:21:24.655Z,88.99
2018-12-31T07:23:55.992Z,88.60
2018-12-31T07:26:27.135Z,87.98
2018-12-31T07:28:58.362Z,87.37
2018-12-31T07:31:31.545Z,87.51
2018-12-31T07:34:02.555Z,87.13
2018-12-31T07:36:33.912Z,87.81
2018-12-31T07:39:08.173Z,87.97
2018-12-31T07:41:39.919Z,89.07
2018-12-31T07:44:10.890Z,89.39
2018-12-31T07:46:43.778Z,89.54
2018-12-31T07:49:16.365Z,89.65
2018-12-31T07:51:47.617Z,89.49
2018-12-31T07:54:18.655Z,89.40
2018-12-31T07:56:49.852Z,89.33
2018-12-31T07:59:21.423Z,88.99
2018-12-31T08:01:52.447Z,87.87
2018-12-31T08:04:24.070Z,88.50
2018-12-31T08:06:57.324Z,88.09
2018-12-31T08:09:28.383Z,87.00
2018-12-31T08:12:00.971Z,86.55
2018-12-31T08:14:33.227Z,86.09
2018-12-31T08:17:04.229Z,86.09
2018-12-31T08:19:35.171Z,85.76
2018-12-31T08:22:06.283Z,85.34
2018-12-31T08:24:37.664Z,84.71
2018-12-31T08:27:08.688Z,84.75
2018-12-31T08:29:40.648Z,83.57
2018-12-31T08:32:11.792Z,83.30
2018-12-31T08:34:42.830Z,83.36
2018-12-31T08:37:13.889Z,83.13
2018-12-31T08:39:45.014Z,83.73
2018-12-31T08:42:16.122Z,83.85
2018-12-31T08:44:47.275Z,83.20
2018-12-31T08:47:18.590Z,83.81
2018-12-31T08:49:49.808Z,82.67
2018-12-31T08:52:21.156Z,82.40
2018-12-31T08:54:53.837Z,83.25
2018-12-31T08:57:25.027Z,81.61
2018-12-31T08:59:57.768Z,81.90
2018-12-31T09:02:28.877Z,82.00
2018-12-31T09:04:59.946Z,81.45
2018-12-31T09:07:31.251Z,81.10
2018-12-31T09:10:02.522Z,80.26
2018-12-31T09:12:34.200Z,78.53
2018-12-31T09:15:06.241Z,79.01
2018-12-31T09:17:39.107Z,78.76
2018-12-31T09:20:10.393Z,77.69
2018-12-31T09:22:41.636Z,77.33
2018-12-31T09:25:13.822Z,77.34
2018-12-31T09:27:44.848Z,76.33
2018-12-31T09:30:16.142Z,77.05
2018-12-31T09:32:47.406Z,76.54
2018-12-31T09:35:18.512Z,74.92
2018-12-31T09:37:51.847Z,76.62
2018-12-31T09:40:23.204Z,75.57
2018-12-31T09:42:54.485Z,75.87
2018-12-31T09:45:25.742Z,75.83
2018-12-31T09:47:56.894Z,75.61
2018-12-31T09:50:28.476Z,75.12
2018-12-31T09:53:00.111Z,74.59
2018-12-31T09:55:31.283Z,73.23
2018-12-31T09:58:02.415Z,73.56
2018-12-31T10:00:33.577Z,73.97
2018-12-31T10:03:04.764Z,75.07
2018-12-31T10:05:35.901Z,74.77
2018-12-31T10:08:07.290Z,74.92
2018-12-31T10:10:38.430Z,75.63
2018-12-31T10:13:09.489Z,76.12
2018-12-31T10:15:41.633Z,75.32
2018-12-31T10:18:13.041Z,74.33
2018-12-31T10:20:44.023Z,76.66
2018-12-31T10:23:15.034Z,76.30
2018-12-31T10:25:46.105Z,76.12
2018-12-31T10:28:18.594Z,75.46
2018-12-31T10:30:49.754Z,76.41
2018-12-31T10:33:22.619Z,74.70
2018-12-31T10:35:54.011Z,75.56
2018-12-31T10:38:25.633Z,77.17
2018-12-31T10:40:56.768Z,78.57
2018-12-31T10:43:28.130Z,78.53
2018-12-31T10:45:59.253Z,77.83
2018-12-31T10:48:30.967Z,78.84
2018-12-31T10:51:02.203Z,78.63
2018-12-31T10:53:33.761Z,77.19
2018-12-31T10:56:05.732Z,76.96
2018-12-31T10:58:37.089Z,77.50
2018-12-31T11:01:08.067Z,77.00
2018-12-31T11:03:39.816Z,76.77
2018-12-31T11:06:10.992Z,76.16
2018-12-31T11:08:42.214Z,76.64
2018-12-31T11:11:13.154Z,75.42
2018-12-31T11:13:44.159Z,76.44
2018-12-31T11:16:15.213Z,77.06
2018-12-31T11:18:47.031Z,76.09
2018-12-31T11:21:18.213Z,75.81
2018-12-31T11:23:49.326Z,77.04
2018-12-31T11:26:20.589Z,80.75
2018-12-31T11:28:51.614Z,80.87
2018-12-31T11:31:30.180Z,82.61
2018-12-31T11:33:56.856Z,81.94
2018-12-31T11:36:28.203Z,82.25
2018-12-31T11:39:00.689Z,81.72
2018-12-31T11:41:32.971Z,82.19
2018-12-31T11:44:04.186Z,82.92
2018-12-31T11:46:36.994Z,83.25
2018-12-31T11:49:08.138Z,82.79
2018-12-31T11:51:39.184Z,82.72
2018-12-31T11:54:10.247Z,82.33
2018-12-31T11:56:41.457Z,83.04
2018-12-31T11:59:12.949Z,83.24
2018-12-31T12:01:43.941Z,82.38
2018-12-31T12:04:15.231Z,81.07
2018-12-31T12:06:46.208Z,82.05
2018-12-31T12:09:17.414Z,82.63
2018-12-31T12:11:48.710Z,82.38
2018-12-31T12:14:19.946Z,79.76
2018-12-31T12:16:51.015Z,83.02
2018-12-31T12:19:22.029Z,82.54
2018-12-31T12:21:54.571Z,81.46
2018-12-31T12:24:25.793Z,81.09
2018-12-31T12:26:56.852Z,81.09
2018-12-31T12:29:28.218Z,80.91
2018-12-31T12:31:59.662Z,81.98
2018-12-31T12:34:31.458Z,82.63
2018-12-31T12:37:03.629Z,82.60
2018-12-31T12:39:35.003Z,80.48
2018-12-31T12:42:05.967Z,79.32
2018-12-31T12:44:37.385Z,79.91
2018-12-31T12:47:08.403Z,79.81
2018-12-31T12:49:39.970Z,80.16
2018-12-31T12:52:11.042Z,79.79
2018-12-31T12:54:42.908Z,80.24
2018-12-31T12:57:13.898Z,80.82
2018-12-31T12:59:45.800Z,81.25
2018-12-31T13:02:19.113Z,81.33
2018-12-31T13:04:50.079Z,81.41
2018-12-31T13:07:21.497Z,81.01
2018-12-31T13:09:54.092Z,80.68
2018-12-31T13:12:25.568Z,80.42
2018-12-31T13:14:57.910Z,81.37
2018-12-31T13:17:29.088Z,81.09
2018-12-31T13:20:00.495Z,82.03
2018-12-31T13:22:31.798Z,81.86
2018-12-31T13:25:04.627Z,82.09
2018-12-31T13:27:35.806Z,82.20
2018-12-31T13:30:07.241Z,82.19
2018-12-31T13:32:38.499Z,82.40
2018-12-31T13:35:09.895Z,81.91
2018-12-31T13:37:41.041Z,82.50
2018-12-31T13:40:12.237Z,80.87
2018-12-31T13:42:43.460Z,79.96
2018-12-31T13:45:14.723Z,80.48
2018-12-31T13:47:45.950Z,79.29
2018-12-31T13:50:17.100Z,78.05
2018-12-31T13:52:49.031Z,78.21
2018-12-31T13:55:20.302Z,77.57
2018-12-31T13:57:51.405Z,78.49
2018-12-31T14:00:22.512Z,77.78
2018-12-31T14:02:53.577Z,78.07
2018-12-31T14:05:24.820Z,79.30
2018-12-31T14:07:56.026Z,79.49
2018-12-31T14:10:27.323Z,79.39
2018-12-31T14:12:58.433Z,77.18
2018-12-31T14:15:29.598Z,78.36
2018-12-31T14:18:00.955Z,78.23
2018-12-31T14:20:32.216Z,78.52
2018-12-31T14:23:03.273Z,78.85
2018-12-31T14:25:34.674Z,78.45
2018-12-31T14:28:06.245Z,79.18
2018-12-31T14:30:38.117Z,78.99
2018-12-31T14:33:09.274Z,78.23
2018-12-31T14:35:45.772Z,78.23
2018-12-31T14:38:14.422Z,78.78
2018-12-31T14:40:46.179Z,78.91
2018-12-31T14:43:17.681Z,78.65
2018-12-31T14:45:49.062Z,78.61
2018-12-31T14:48:20.873Z,78.01
2018-12-31T14:50:53.239Z,78.65
2018-12-31T14:53:25.954Z,78.78
2018-12-31T14:55:57.566Z,78.79
2018-12-31T14:58:28.694Z,78.61
2018-12-31T15:01:00.355Z,78.17
2018-12-31T15:03:31.422Z,78.40
2018-12-31T15:06:02.827Z,79.00
2018-12-31T15:08:34.819Z,79.40
2018-12-31T15:11:06.046Z,79.50
2018-12-31T15:13:37.120Z,79.88
2018-12-31T15:16:08.380Z,80.21
2018-12-31T15:18:39.546Z,80.26
2018-12-31T15:21:10.781Z,80.54
2018-12-31T15:23:42.107Z,80.20
2018-12-31T15:26:13.236Z,80.75
2018-12-31T15:28:44.417Z,80.72
2018-12-31T15:31:16.279Z,80.37
2018-12-31T15:33:47.554Z,80.15
2018-12-31T15:36:18.695Z,80.24
2018-12-31T15:38:50.649Z,79.94
2018-12-31T15:41:23.866Z,80.03
2018-12-31T15:43:55.205Z,80.17
2018-12-31T15:46:26.316Z,80.37
2018-12-31T15:48:58.099Z,80.46
2018-12-31T15:51:29.331Z,80.56
2018-12-31T15:54:00.316Z,81.02
2018-12-31T15:56:33.218Z,80.93
2018-12-31T15:59:04.435Z,81.24
2018-12-31T16:01:35.638Z,81.49
2018-12-31T16:04:06.716Z,81.82
2018-12-31T16:06:38.054Z,81.44
2018-12-31T16:09:09.039Z,81.48
2018-12-31T16:11:40.451Z,81.96
2018-12-31T16:14:11.632Z,81.84
2018-12-31T16:16:43.341Z,81.50
2018-12-31T16:19:14.313Z,81.62
2018-12-31T16:21:46.192Z,81.15
2018-12-31T16:24:18.787Z,81.75
2018-12-31T16:26:50.013Z,81.41
2018-12-31T16:29:21.147Z,81.38
2018-12-31T16:31:52.234Z,81.81
2018-12-31T16:34:25.016Z,81.28
2018-12-31T16:36:56.718Z,80.80
2018-12-31T16:39:28.017Z,81.30
2018-12-31T16:41:59.098Z,79.99
2018-12-31T16:44:30.093Z,79.48
2018-12-31T16:47:01.452Z,79.71
2018-12-31T16:49:32.639Z,79.80
2018-12-31T16:52:04.624Z,79.86
2018-12-31T16:54:36.168Z,79.33
2018-12-31T16:57:07.296Z,79.03
2018-12-31T16:59:38.375Z,78.23
2018-12-31T17:02:09.453Z,78.35
2018-12-31T17:04:41.399Z,78.98
2018-12-31T17:07:12.685Z,78.93
2018-12-31T17:09:45.399Z,79.45
2018-12-31T17:12:20.252Z,79.28
2018-12-31T17:14:51.430Z,78.73
2018-12-31T17:17:22.609Z,78.65
2018-12-31T17:19:53.910Z,79.27
2018-12-31T17:22:25.618Z,79.34
2018-12-31T17:24:58.151Z,79.16
2018-12-31T17:27:29.183Z,77.96
2018-12-31T17:30:00.543Z,75.84
2018-12-31T17:32:31.732Z,76.00
2018-12-31T17:35:02.893Z,76.11
2018-12-31T17:37:34.476Z,75.54
2018-12-31T17:40:06.629Z,75.71
2018-12-31T17:42:39.055Z,75.70
2018-12-31T17:45:10.109Z,75.74
2018-12-31T17:47:41.705Z,74.68
2018-12-31T17:50:12.858Z,75.19
2018-12-31T17:52:45.500Z,74.91
2018-12-31T17:55:16.476Z,75.46
2018-12-31T17:57:47.739Z,76.03
2018-12-31T18:00:19.386Z,76.91
2018-12-31T18:02:50.939Z,77.80
2018-12-31T18:05:23.597Z,78.22
2018-12-31T18:07:54.657Z,78.23
2018-12-31T18:10:25.883Z,78.17
2018-12-31T18:12:59.649Z,78.11
2018-12-31T18:15:30.924Z,78.09
2018-12-31T18:18:01.964Z,78.46
2018-12-31T18:20:33.590Z,78.59
2018-12-31T18:23:04.621Z,78.92
2018-12-31T18:25:37.817Z,79.12
2018-12-31T18:28:08.817Z,79.44
2018-12-31T18:30:40.371Z,79.88
2018-12-31T18:33:11.475Z,80.15
2018-12-31T18:35:43.042Z,80.54
2018-12-31T18:38:14.262Z,80.94
2018-12-31T18:40:45.442Z,80.99
2018-12-31T18:43:16.586Z,80.97
2018-12-31T18:45:48.090Z,81.60
2018-12-31T18:48:19.302Z,81.59
2018-12-31T18:50:50.681Z,81.65
2018-12-31T18:53:22.181Z,81.97
2018-12-31T18:55:53.256Z,82.01
2018-12-31T18:58:24.588Z,82.09
2018-12-31T19:00:55.730Z,82.19
2018-12-31T19:03:26.987Z,82.42
2018-12-31T19:05:58.053Z,82.48
2018-12-31T19:08:29.418Z,82.57
2018-12-31T19:11:00.788Z,82.94
2018-12-31T19:13:32.107Z,82.83
2018-12-31T19:16:03.260Z,82.92
2018-12-31T19:18:34.307Z,83.10
2018-12-31T19:21:05.836Z,82.98
2018-12-31T19:23:37.857Z,82.98
2018-12-31T19:26:09.180Z,83.47
2018-12-31T19:28:40.329Z,84.36
2018-12-31T19:31:11.316Z,84.07
2018-12-31T19:33:42.511Z,84.62
2018-12-31T19:36:13.868Z,84.26
2018-12-31T19:38:44.898Z,84.03
2018-12-31T19:41:17.169Z,84.47
2018-12-31T19:43:48.366Z,85.27
2018-12-31T19:46:19.487Z,85.95
2018-12-31T19:48:53.321Z,86.22
2018-12-31T19:51:24.497Z,86.37
2018-12-31T19:53:56.158Z,86.37
2018-12-31T19:56:27.353Z,86.58
2018-12-31T19:58:59.012Z,86.66
2018-12-31T20:01:30.494Z,86.57
2018-12-31T20:04:02.259Z,86.93
2018-12-31T20:06:33.617Z,87.20
2018-12-31T20:09:05.699Z,87.28
2018-12-31T20:11:36.914Z,87.11
2018-12-31T20:14:07.930Z,86.91
2018-12-31T20:16:39.029Z,86.53
2018-12-31T20:19:10.237Z,86.00
2018-12-31T20:21:41.310Z,84.90
2018-12-31T20:24:12.399Z,84.44
2018-12-31T20:26:45.117Z,85.42
2018-12-31T20:29:16.873Z,84.83
2018-12-31T20:31:48.068Z,85.51
2018-12-31T20:34:19.394Z,86.16
2018-12-31T20:36:50.690Z,86.96
2018-12-31T20:39:21.887Z,87.00
2018-12-31T20:41:54.217Z,86.95
2018-12-31T20:44:25.934Z,86.99
2018-12-31T20:46:57.026Z,86.77
2018-12-31T20:49:29.897Z,86.69
2018-12-31T20:52:01.528Z,86.98
2018-12-31T20:54:32.629Z,87.20
2018-12-31T20:57:03.897Z,87.21
2018-12-31T20:59:36.413Z,87.30
2018-12-31T21:02:08.463Z,87.61
2018-12-31T21:04:39.897Z,87.55
2018-12-31T21:07:11.151Z,87.50
2018-12-31T21:09:42.349Z,87.66
2018-12-31T21:12:13.612Z,87.70
2018-12-31T21:14:44.913Z,87.67
2018-12-31T21:17:16.014Z,87.48
2018-12-31T21:19:47.363Z,87.57
2018-12-31T21:22:18.569Z,87.50
2018-12-31T21:24:49.667Z,87.17
2018-12-31T21:27:20.791Z,87.04
2018-12-31T21:29:51.880Z,86.79
2018-12-31T21:32:22.980Z,86.61
2018-12-31T21:34:54.367Z,86.62
2018-12-31T21:37:25.448Z,86.64
2018-12-31T21:39:56.558Z,86.52
2018-12-31T21:42:27.773Z,86.55
2018-12-31T21:45:01.251Z,86.35
2018-12-31T21:47:32.488Z,86.22
2018-12-31T21:50:03.859Z,86.73
2018-12-31T21:52:35.192Z,86.81
2018-12-31T21:55:06.950Z,87.01
2018-12-31T21:57:38.962Z,87.42
2018-12-31T22:00:10.569Z,87.55
2018-12-31T22:02:42.174Z,87.62
2018-12-31T22:05:13.251Z,87.48
2018-12-31T22:07:44.309Z,87.36
2018-12-31T22:10:15.396Z,86.99
2018-12-31T22:12:46.596Z,87.02
2018-12-31T22:15:17.781Z,87.36
2018-12-31T22:17:48.919Z,87.53
2018-12-31T22:20:20.329Z,87.77
2018-12-31T22:22:51.677Z,87.99
2018-12-31T22:25:24.206Z,88.06
2018-12-31T22:27:55.470Z,87.91
2018-12-31T22:30:27.199Z,87.88
2018-12-31T22:32:58.375Z,87.77
2018-12-31T22:35:30.961Z,87.73
2018-12-31T22:38:02.254Z,87.73
2018-12-31T22:40:33.859Z,87.90
2018-12-31T22:43:05.572Z,87.74
2018-12-31T22:45:37.851Z,87.81
2018-12-31T22:48:09.056Z,87.77
2018-12-31T22:50:40.184Z,87.58
2018-12-31T22:53:11.630Z,87.56
2018-12-31T22:55:42.950Z,87.21
2018-12-31T22:58:13.951Z,87.12
2018-12-31T23:00:45.121Z,87.06
2018-12-31T23:03:16.557Z,86.80
2018-12-31T23:05:49.398Z,86.65
2018-12-31T23:08:20.754Z,86.45
2018-12-31T23:10:51.962Z,86.13
2018-12-31T23:13:23.283Z,85.87
2018-12-31T23:15:54.466Z,85.57
2018-12-31T23:18:27.149Z,85.30
2018-12-31T23:20:58.489Z,85.03
2018-12-31T23:23:29.848Z,85.01
2018-12-31T23:26:01.854Z,84.86
2018-12-31T23:28:32.914Z,84.81
2018-12-31T23:31:04.327Z,85.08
2018-12-31T23:33:35.331Z,84.92
2018-12-31T23:36:06.485Z,84.94
2018-12-31T23:38:37.934Z,84.93
2018-12-31T23:41:09.594Z,84.91
2018-12-31T23:43:40.730Z,84.81
2018-12-31T23:46:12.043Z,84.76
2018-12-31T23:48:43.141Z,84.64
2018-12-31T23:51:14.540Z,84.77
2018-12-31T23:53:45.703Z,84.81
2018-12-31T23:56:16.888Z,84.91
2018-12-31T23:58:48.966Z,85.25
